createdAt,value
2018-12-17T00:00:58.066Z,100258.80
2018-12-17T00:06:01.650Z,100264.31
2018-12-17T00:11:05.032Z,100258.80
2018-12-17T00:16:08.336Z,100249.53
2018-12-17T00:21:11.633Z,100250.87
2018-12-17T00:26:14.932Z,100264.53
2018-12-17T00:31:18.249Z,100266.14
2018-12-17T00:36:21.545Z,100257.59
2018-12-17T00:41:24.854Z,100270.39
2018-12-17T00:46:28.168Z,100273.69
2018-12-17T00:51:31.545Z,100270.75
2018-12-17T00:56:34.861Z,100272.35
2018-12-17T01:01:38.162Z,100275.03
2018-12-17T01:06:41.477Z,100282.47
2018-12-17T01:11:44.785Z,100290.91
2018-12-17T01:16:48.081Z,100296.62
2018-12-17T01:21:51.463Z,100315.77
2018-12-17T01:26:54.755Z,100308.46
2018-12-17T01:31:58.050Z,100313.70
2018-12-17T01:37:01.342Z,100318.94
2018-12-17T01:42:04.642Z,100325.80
2018-12-17T01:47:07.970Z,100325.66
2018-12-17T01:52:11.273Z,100320.56
2018-12-17T01:57:14.654Z,100323.97
2018-12-17T02:02:17.954Z,100323.73
2018-12-17T02:07:21.245Z,100323.95
2018-12-17T02:12:24.562Z,100327.87
2018-12-17T02:17:27.866Z,100337.88
2018-12-17T02:22:31.258Z,100331.02
2018-12-17T02:27:34.573Z,100337.00
2018-12-17T02:32:37.922Z,100334.69
2018-12-17T02:37:41.243Z,100345.16
2018-12-17T02:42:44.545Z,100343.21
2018-12-17T02:47:47.837Z,100350.28
2018-12-17T02:52:51.134Z,100354.55
2018-12-17T02:57:54.455Z,100352.99
2018-12-17T03:02:57.762Z,100360.80
2018-12-17T03:08:01.145Z,100369.58
2018-12-17T03:13:04.458Z,100371.16
2018-12-17T03:18:07.766Z,100378.70
2018-12-17T03:23:11.072Z,100383.34
2018-12-17T03:28:14.369Z,100386.85
2018-12-17T03:33:17.667Z,100389.02
2018-12-17T03:38:20.970Z,100398.77
2018-12-17T03:43:24.304Z,100395.20
2018-12-17T03:48:27.596Z,100401.78
2018-12-17T03:53:30.893Z,100400.23
2018-12-17T03:58:34.193Z,100400.39
2018-12-17T04:03:37.649Z,100408.10
2018-12-17T04:08:40.958Z,100412.73
2018-12-17T04:13:44.254Z,100417.13
2018-12-17T04:18:47.560Z,100421.97
2018-12-17T04:23:50.983Z,100425.39
2018-12-17T04:28:54.285Z,100433.28
2018-12-17T04:33:57.605Z,100441.09
2018-12-17T04:39:00.921Z,100444.13
2018-12-17T04:44:04.221Z,100446.20
2018-12-17T04:49:07.534Z,100449.49
2018-12-17T04:54:10.881Z,100454.92
2018-12-17T04:59:14.824Z,100462.37
2018-12-17T05:04:18.608Z,100464.73
2018-12-17T05:09:21.960Z,100469.62
2018-12-17T05:14:25.253Z,100475.19
2018-12-17T05:19:28.558Z,100484.73
2018-12-17T05:24:31.917Z,100495.95
2018-12-17T05:29:35.233Z,100511.77
2018-12-17T05:34:38.549Z,100516.11
2018-12-17T05:39:41.919Z,100518.67
2018-12-17T05:44:45.218Z,100522.16
2018-12-17T05:49:48.521Z,100531.41
2018-12-17T05:54:51.878Z,100536.11
2018-12-17T05:59:55.182Z,100536.34
2018-12-17T06:04:58.473Z,100541.97
2018-12-17T06:10:01.795Z,100549.70
2018-12-17T06:15:05.805Z,100559.84
2018-12-17T06:20:09.097Z,100565.86
2018-12-17T06:25:12.390Z,100572.08
2018-12-17T06:30:15.685Z,100574.52
2018-12-17T06:35:18.979Z,100580.93
2018-12-17T06:40:22.293Z,100578.48
2018-12-17T06:45:25.593Z,100581.88
2018-12-17T06:50:28.881Z,100583.91
2018-12-17T06:55:32.177Z,100588.16
2018-12-17T07:00:35.465Z,100591.92
2018-12-17T07:05:38.749Z,100591.69
2018-12-17T07:10:42.053Z,100590.49
2018-12-17T07:15:45.374Z,100599.94
2018-12-17T07:20:48.666Z,100614.45
2018-12-17T07:25:51.949Z,100628.73
2018-12-17T07:30:55.245Z,100624.45
2018-12-17T07:35:58.538Z,100626.50
2018-12-17T07:41:02.209Z,100635.23
2018-12-17T07:46:05.499Z,100649.35
2018-12-17T07:51:08.791Z,100659.94
2018-12-17T07:56:12.077Z,100661.70
2018-12-17T08:01:15.373Z,100668.88
2018-12-17T08:06:18.670Z,100674.69
2018-12-17T08:11:21.960Z,100683.84
2018-12-17T08:16:25.269Z,100692.89
2018-12-17T08:21:28.581Z,100717.68
2018-12-17T08:26:31.898Z,100740.38
2018-12-17T08:31:35.224Z,100734.49
2018-12-17T08:36:38.549Z,100750.38
2018-12-17T08:41:41.869Z,100755.94
2018-12-17T08:46:45.175Z,100757.38
2018-12-17T08:51:48.813Z,100743.54
2018-12-17T08:56:52.113Z,100743.39
2018-12-17T09:01:55.419Z,100733.13
2018-12-17T09:06:58.714Z,100734.92
2018-12-17T09:12:02.034Z,100743.34
2018-12-17T09:17:05.336Z,100743.27
2018-12-17T09:22:08.642Z,100744.31
2018-12-17T09:27:12.022Z,100744.27
2018-12-17T09:32:15.316Z,100754.28
2018-12-17T09:37:18.647Z,100753.91
2018-12-17T09:42:21.947Z,100758.92
2018-12-17T09:47:25.229Z,100769.27
2018-12-17T09:52:28.524Z,100769.10
2018-12-17T09:57:31.841Z,100762.14
2018-12-17T10:02:35.128Z,100759.22
2018-12-17T10:07:38.417Z,100753.56
2018-12-17T10:12:41.753Z,100756.77
2018-12-17T10:17:45.040Z,100759.49
2018-12-17T10:22:48.357Z,100748.50
2018-12-17T10:27:51.655Z,100743.47
2018-12-17T10:32:54.977Z,100743.50
2018-12-17T10:37:58.418Z,100746.05
2018-12-17T10:43:01.721Z,100753.01
2018-12-17T10:48:05.039Z,100747.87
2018-12-17T10:53:08.352Z,100752.27
2018-12-17T10:58:11.662Z,100750.55
2018-12-17T11:08:33.455Z,100736.88
2018-12-17T11:13:36.897Z,100743.62
2018-12-17T11:18:40.220Z,100752.94
2018-12-17T11:23:43.546Z,100749.94
2018-12-17T11:28:46.866Z,100751.84
2018-12-17T11:33:50.246Z,100758.66
2018-12-17T11:38:53.553Z,100754.73
2018-12-17T11:43:56.861Z,100754.10
2018-12-17T11:49:00.185Z,100751.91
2018-12-17T11:54:03.498Z,100746.06
2018-12-17T11:59:06.844Z,100755.79
2018-12-17T12:04:10.249Z,100752.37
2018-12-17T12:09:18.549Z,100751.78
2018-12-17T12:14:22.049Z,100749.70
2018-12-17T12:19:25.352Z,100750.62
2018-12-17T12:24:28.645Z,100759.59
2018-12-17T12:29:31.946Z,100759.53
2018-12-17T12:34:35.255Z,100761.20
2018-12-17T12:39:38.584Z,100767.62
2018-12-17T12:44:41.893Z,100766.80
2018-12-17T12:49:45.193Z,100761.36
2018-12-17T12:54:48.510Z,100778.41
2018-12-17T12:59:51.841Z,100774.55
2018-12-17T13:04:55.162Z,100772.97
2018-12-17T13:09:58.471Z,100791.72
2018-12-17T13:15:01.803Z,100789.98
2018-12-17T13:20:07.582Z,100795.72
2018-12-17T13:25:24.383Z,100803.70
2018-12-17T13:30:27.780Z,100799.55
2018-12-17T13:35:31.098Z,100810.48
2018-12-17T13:40:34.426Z,100801.80
2018-12-17T13:45:37.754Z,100797.88
2018-12-17T13:50:41.061Z,100792.98
2018-12-17T13:55:44.436Z,100799.09
2018-12-17T14:00:47.821Z,100804.48
2018-12-17T14:05:51.138Z,100789.05
2018-12-17T14:10:54.914Z,100793.89
2018-12-17T14:16:03.548Z,100805.38
2018-12-17T14:21:13.790Z,100798.38
2018-12-17T14:26:17.260Z,100803.56
2018-12-17T14:31:20.589Z,100808.17
2018-12-17T14:36:23.913Z,100815.14
2018-12-17T14:41:27.238Z,100818.66
2018-12-17T14:46:34.722Z,100826.52
2018-12-17T14:51:38.017Z,100830.44
2018-12-17T14:56:41.322Z,100834.13
2018-12-17T15:01:44.687Z,100840.92
2018-12-17T15:06:48.021Z,100843.80
2018-12-17T15:11:51.348Z,100848.56
2018-12-17T15:16:54.661Z,100849.53
2018-12-17T15:21:57.985Z,100853.77
2018-12-17T15:27:01.284Z,100861.24
2018-12-17T15:32:04.677Z,100875.88
2018-12-17T15:37:07.989Z,100880.34
2018-12-17T15:42:11.301Z,100884.72
2018-12-17T15:47:14.629Z,100889.48
2018-12-17T15:52:17.968Z,100893.38
2018-12-17T15:57:21.295Z,100880.87
2018-12-17T16:02:24.604Z,100882.96
2018-12-17T16:07:27.935Z,100885.65
2018-12-17T16:12:31.260Z,100890.83
2018-12-17T16:17:34.606Z,100889.78
2018-12-17T16:22:37.917Z,100906.92
2018-12-17T16:27:41.235Z,100911.16
2018-12-17T16:32:44.560Z,100920.25
2018-12-17T16:37:47.870Z,100925.06
2018-12-17T16:42:51.194Z,100932.11
2018-12-17T16:47:55.105Z,100946.69
2018-12-17T16:52:58.424Z,100946.20
2018-12-17T16:58:01.756Z,100943.04
2018-12-17T17:03:05.060Z,100957.47
2018-12-17T17:08:08.376Z,100961.84
2018-12-17T17:13:11.727Z,100965.21
2018-12-17T17:18:15.053Z,100966.59
2018-12-17T17:23:18.509Z,100974.27
2018-12-17T17:28:21.866Z,100975.77
2018-12-17T17:33:25.189Z,100976.01
2018-12-17T17:38:28.517Z,100982.45
2018-12-17T17:43:31.854Z,100991.73
2018-12-17T17:48:35.181Z,100990.98
2018-12-17T17:53:38.503Z,100997.91
2018-12-17T17:58:41.886Z,101002.31
2018-12-17T18:03:45.209Z,101017.36
2018-12-17T18:08:48.526Z,101016.80
2018-12-17T18:13:51.865Z,101017.66
2018-12-17T18:18:55.195Z,101023.30
2018-12-17T18:23:58.507Z,101027.70
2018-12-17T18:29:02.742Z,101041.98
2018-12-17T18:34:06.338Z,101047.98
2018-12-17T18:39:09.852Z,101058.28
2018-12-17T18:44:13.215Z,101069.55
2018-12-17T18:49:16.660Z,101076.74
2018-12-17T18:54:20.021Z,101079.03
2018-12-17T18:59:23.356Z,101088.22
2018-12-17T19:04:26.669Z,101085.63
2018-12-17T19:09:30.014Z,101087.73
2018-12-17T19:14:33.357Z,101095.78
2018-12-17T19:19:36.690Z,101103.35
2018-12-17T19:24:40.025Z,101098.20
2018-12-17T19:29:43.342Z,101105.88
2018-12-17T19:34:46.732Z,101107.00
2018-12-17T19:39:50.101Z,101113.34
2018-12-17T19:44:53.443Z,101121.50
2018-12-17T19:49:56.811Z,101115.16
2018-12-17T19:55:00.182Z,101121.44
2018-12-17T20:00:03.876Z,101125.63
2018-12-17T20:05:07.249Z,101123.86
2018-12-17T20:10:14.714Z,101127.14
2018-12-17T20:15:18.109Z,101132.67
2018-12-17T20:20:21.438Z,101138.15
2018-12-17T20:25:24.805Z,101144.38
2018-12-17T20:30:28.629Z,101140.34
2018-12-17T20:35:31.970Z,101139.70
2018-12-17T20:40:35.302Z,101141.31
2018-12-17T20:45:38.629Z,101146.67
2018-12-17T20:50:41.964Z,101147.63
2018-12-17T20:55:45.301Z,101142.75
2018-12-17T21:00:48.642Z,101143.48
2018-12-17T21:05:51.981Z,101151.64
2018-12-17T21:10:55.330Z,101154.59
2018-12-17T21:15:58.661Z,101160.26
2018-12-17T21:21:02.002Z,101162.06
2018-12-17T21:26:05.351Z,101162.19
2018-12-17T21:31:08.680Z,101160.45
2018-12-17T21:36:12.014Z,101156.53
2018-12-17T21:41:15.429Z,101156.48
2018-12-17T21:46:18.777Z,101167.17
2018-12-17T21:51:22.105Z,101169.28
2018-12-17T21:56:25.440Z,101175.98
2018-12-17T22:01:28.761Z,101177.38
2018-12-17T22:06:32.112Z,101182.64
2018-12-17T22:11:35.705Z,101189.62
2018-12-17T22:16:39.050Z,101194.88
2018-12-17T22:21:42.373Z,101191.39
2018-12-17T22:26:45.734Z,101210.57
2018-12-17T22:31:49.110Z,101207.72
2018-12-17T22:36:52.435Z,101206.37
2018-12-17T22:41:55.837Z,101198.91
2018-12-17T22:46:59.197Z,101203.86
2018-12-17T22:52:02.530Z,101201.38
2018-12-17T22:57:05.845Z,101203.31
2018-12-17T23:02:09.157Z,101203.48
2018-12-17T23:07:12.491Z,101215.38
2018-12-17T23:12:27.237Z,101208.67
2018-12-17T23:17:39.993Z,101213.09
2018-12-17T23:22:43.857Z,101212.44
2018-12-17T23:27:50.252Z,101208.85
2018-12-17T23:32:53.594Z,101214.22
2018-12-17T23:37:56.905Z,101212.39
2018-12-17T23:43:00.222Z,101204.64
